Time;durP1;ratioP1;P1;durP2;ratioP2;P2;SDS_P1;SDS_P2;PMS_P1;PMS_P2;Temp;Humidity;BMP_temperature;BMP_pressure;BME280_temperature;BME280_humidity;BME280_pressure;Samples;Min_cycle;Max_cycle;Signal;HPM_P1;HPM_P2
2022/09/11 00:23:16;;;;;;;;;;;;;;;;;;;;;
2022/09/11 00:28:59;;;;;;;43.42;24.95;;;;;;;;;;6214802;23;20378;-93
2022/09/11 06:21:32;;;;;;;80.07;41.13;;;;;;;;;;6265259;22;20393;-91
2022/09/11 06:27:28;;;;;;;;;;;;;;;;;;;;;
2022/09/11 06:32:43;;;;;;;61.72;37.38;;;;;;;;;;6225567;22;20390;-92
2022/09/11 06:38:22;;;;;;;65.43;39.03;;;;;;;;;;6202023;22;20421;-86
2022/09/11 06:43:48;;;;;;;67.93;41.30;;;;;;;;;;6234424;23;20427;-90
2022/09/11 06:47:04;;;;;;;70.80;40.40;;;;;;;;;;6239281;23;20381;-91
2022/09/11 08:15:08;;;;;;;90.70;46.05;;;;;;;;;;6251373;22;20397;-87
2022/09/11 08:20:39;;;;;;;110.65;56.10;;;;;;;;;;6282149;22;20367;-91
2022/09/11 08:23:08;;;;;;;103.72;51.05;;;;;;;;;;6254507;22;20359;-92
2022/09/11 08:29:07;;;;;;;95.18;48.95;;;;;;;;;;6281190;22;20364;-93
2022/09/11 08:31:34;;;;;;;89.78;48.22;;;;;;;;;;6251998;22;20451;-94
2022/09/11 08:34:00;;;;;;;84.78;46.45;;;;;;;;;;6275734;22;20424;-93
2022/09/11 08:36:28;;;;;;;85.07;46.75;;;;;;;;;;6250437;22;20370;-93
2022/09/11 08:39:04;;;;;;;93.80;47.05;;;;;;;;;;6248040;22;20360;-92
2022/09/11 08:41:57;;;;;;;96.07;49.70;;;;;;;;;;6254878;22;20367;-92
2022/09/11 08:44:27;;;;;;;92.40;49.67;;;;;;;;;;6251648;22;20349;-93
2022/09/11 08:46:59;;;;;;;89.20;49.33;;;;;;;;;;6253573;22;20344;-91
2022/09/11 08:49:33;;;;;;;88.32;49.03;;;;;;;;;;6250354;22;20351;-91
2022/09/11 08:54:46;;;;;;;86.65;48.25;;;;;;;;;;6278083;22;20447;-90
2022/09/11 08:57:45;;;;;;;93.25;49.20;;;;;;;;;;6253654;22;20368;-93
2022/09/11 09:00:22;;;;;;;78.22;43.80;;;;;;;;;;6255804;22;20440;-93
2022/09/11 09:03:05;;;;;;;77.63;44.20;;;;;;;;;;6247519;22;20508;-90
2022/09/11 09:05:46;;;;;;;88.35;46.95;;;;;;;;;;6253028;22;20347;-91
2022/09/11 09:08:29;;;;;;;84.60;45.72;;;;;;;;;;6251671;22;20344;-92
2022/09/11 09:11:09;;;;;;;86.15;45.90;;;;;;;;;;6252260;22;20383;-89
2022/09/11 09:13:54;;;;;;;84.78;46.35;;;;;;;;;;6254854;22;20382;-92
2022/09/11 09:16:24;;;;;;;80.25;42.80;;;;;;;;;;6251822;22;20383;-91
2022/09/11 09:18:55;;;;;;;88.20;43.97;;;;;;;;;;6251915;22;20862;-91
2022/09/11 09:21:34;;;;;;;77.32;44.67;;;;;;;;;;6250757;22;20858;-89
2022/09/11 09:24:05;;;;;;;71.88;41.15;;;;;;;;;;6251286;22;20356;-93
2022/09/11 09:26:38;;;;;;;63.30;39.17;;;;;;;;;;6252958;22;20344;-92
2022/09/11 09:29:08;;;;;;;58.20;36.38;;;;;;;;;;6251069;22;20455;-91
2022/09/11 09:31:37;;;;;;;59.58;38.25;;;;;;;;;;6251844;22;20348;-94
2022/09/11 09:34:16;;;;;;;65.43;40.97;;;;;;;;;;6276181;22;20371;-95
2022/09/11 09:37:03;;;;;;;56.90;37.80;;;;;;;;;;6278964;22;20352;-92
2022/09/11 09:39:41;;;;;;;63.85;39.28;;;;;;;;;;6278165;22;20364;-95
2022/09/11 09:42:07;;;;;;;54.53;36.67;;;;;;;;;;6282283;22;20363;-93
2022/09/11 10:46:45;;;;;;;58.43;42.63;;;;;;;;;;6263795;23;20390;-93
2022/09/11 10:54:31;;;;;;;48.03;36.27;;;;;;;;;;6225399;22;20441;-96
2022/09/11 11:02:51;;;;;;;45.92;36.25;;;;;;;;;;6229936;22;20367;-95
2022/09/11 11:05:36;;;;;;;46.00;35.80;;;;;;;;;;6236898;22;20367;-94
2022/09/11 11:08:13;;;;;;;38.40;31.60;;;;;;;;;;6235098;23;20378;-93
2022/09/11 11:11:02;;;;;;;41.03;33.45;;;;;;;;;;6234270;22;20355;-94
2022/09/11 11:13:48;;;;;;;40.13;33.27;;;;;;;;;;6229705;23;20410;-88
2022/09/11 11:16:38;;;;;;;47.75;38.60;;;;;;;;;;6236489;23;20379;-95
2022/09/11 11:19:19;;;;;;;49.33;39.67;;;;;;;;;;6228753;23;20378;-94
2022/09/11 11:22:15;;;;;;;;;;;;;;;;;;;;;
2022/09/11 11:25:09;;;;;;;47.47;39.75;;;;;;;;;;6215188;23;20402;-95
2022/09/11 11:27:50;;;;;;;46.83;38.47;;;;;;;;;;6231939;23;20339;-94
2022/09/11 11:30:28;;;;;;;43.33;37.30;;;;;;;;;;6202117;23;20367;-96
2022/09/11 11:33:09;;;;;;;43.05;37.40;;;;;;;;;;6204294;23;20352;-95
2022/09/11 11:35:43;;;;;;;42.88;36.67;;;;;;;;;;6202409;23;20391;-92
2022/09/11 11:38:28;;;;;;;38.47;34.03;;;;;;;;;;6232010;23;20348;-94
2022/09/11 11:40:58;;;;;;;40.80;36.03;;;;;;;;;;6197401;23;20359;-95
2022/09/11 11:54:19;;;;;;;35.45;31.95;;;;;;;;;;6137200;22;2191124;-90
2022/09/11 11:56:50;;;;;;;31.70;28.40;;;;;;;;;;6227134;23;20363;-93
2022/09/11 11:59:30;;;;;;;34.20;30.77;;;;;;;;;;6225969;23;20359;-93
2022/09/11 12:02:02;;;;;;;35.20;31.10;;;;;;;;;;6224598;23;20383;-91
2022/09/11 12:04:39;;;;;;;32.67;29.37;;;;;;;;;;6228090;23;20261;-94
2022/09/11 12:07:15;;;;;;;30.97;27.57;;;;;;;;;;6230344;23;20453;-91
2022/09/11 12:10:09;;;;;;;33.53;28.60;;;;;;;;;;6231025;23;20354;-93
2022/09/11 12:12:49;;;;;;;31.20;27.90;;;;;;;;;;6237420;23;20389;-94
2022/09/11 12:15:22;;;;;;;30.17;27.23;;;;;;;;;;6236558;23;20378;-93
2022/09/11 12:18:26;;;;;;;;;;;;;;;;;;;;;
2022/09/11 12:23:56;;;;;;;36.57;32.67;;;;;;;;;;6230612;23;20429;-95
2022/09/11 12:26:30;;;;;;;37.63;32.37;;;;;;;;;;6186950;23;20457;-96
2022/09/11 12:35:01;;;;;;;36.13;31.00;;;;;;;;;;6244662;22;20429;-95
2022/09/11 12:37:44;;;;;;;;;;;;;;;;;;;;;
2022/09/11 12:40:53;;;;;;;37.73;32.17;;;;;;;;;;6242907;23;20365;-94
2022/09/11 12:46:36;;;;;;;42.93;33.50;;;;;;;;;;6227240;23;20377;-95
2022/09/11 12:49:06;;;;;;;40.60;31.90;;;;;;;;;;6244163;23;20397;-93
2022/09/11 12:52:01;;;;;;;40.63;31.73;;;;;;;;;;6216215;23;20395;-94
2022/09/11 12:54:44;;;;;;;40.23;32.07;;;;;;;;;;6191693;23;20390;-92
2022/09/11 12:57:30;;;;;;;43.90;35.00;;;;;;;;;;6207326;22;20377;-95
2022/09/11 13:00:50;;;;;;;;;;;;;;;;;;;;;
2022/09/11 13:09:27;;;;;;;42.73;33.80;;;;;;;;;;6182200;23;20388;-95
2022/09/11 13:11:57;;;;;;;38.30;31.43;;;;;;;;;;6213426;23;20401;-95
2022/09/11 13:14:40;;;;;;;;;;;;;;;;;;;;;
2022/09/11 13:17:24;;;;;;;40.67;29.00;;;;;;;;;;6229176;23;20379;-93
2022/09/11 13:20:21;;;;;;;34.40;26.60;;;;;;;;;;6209550;23;20413;-95
2022/09/11 13:23:04;;;;;;;37.33;30.27;;;;;;;;;;6201333;23;20490;-94
2022/09/11 13:28:34;;;;;;;32.07;28.20;;;;;;;;;;6170307;23;20457;-93
2022/09/11 13:31:03;;;;;;;31.50;28.27;;;;;;;;;;6204857;23;20391;-94
2022/09/11 13:33:33;;;;;;;31.17;27.93;;;;;;;;;;6209698;23;20402;-95
2022/09/11 13:36:12;;;;;;;;;;;;;;;;;;;;;
2022/09/11 13:38:41;;;;;;;31.80;28.50;;;;;;;;;;6147505;23;20462;-93
2022/09/11 13:44:01;;;;;;;31.03;27.80;;;;;;;;;;6227841;22;20456;-94
2022/09/11 13:49:25;;;;;;;33.87;30.37;;;;;;;;;;6198631;23;20532;-93
2022/09/11 13:51:52;;;;;;;32.10;28.70;;;;;;;;;;6184268;23;20465;-93
2022/09/11 13:54:27;;;;;;;31.17;28.03;;;;;;;;;;6240350;23;20433;-93
2022/09/11 13:57:24;;;;;;;30.90;27.63;;;;;;;;;;6228690;23;20477;-92
2022/09/11 14:00:00;;;;;;;31.37;28.10;;;;;;;;;;6238678;23;20501;-92
2022/09/11 14:02:39;;;;;;;27.60;25.00;;;;;;;;;;6240325;23;20402;-93
2022/09/11 14:05:25;;;;;;;30.83;27.73;;;;;;;;;;6215123;23;20417;-93
2022/09/11 14:08:13;;;;;;;27.93;25.20;;;;;;;;;;6212847;23;20390;-95
2022/09/11 14:10:42;;;;;;;26.87;24.37;;;;;;;;;;6172205;23;20441;-94
2022/09/11 14:13:14;;;;;;;29.20;26.60;;;;;;;;;;6176335;23;20482;-93
2022/09/11 14:15:41;;;;;;;28.40;25.60;;;;;;;;;;6178169;23;20428;-92
2022/09/11 14:18:24;;;;;;;27.33;24.57;;;;;;;;;;6173169;23;20383;-92
2022/09/11 14:20:54;;;;;;;28.70;25.90;;;;;;;;;;6172096;23;20395;-91
2022/09/11 14:23:24;;;;;;;27.90;25.20;;;;;;;;;;6171492;23;20419;-91
2022/09/11 14:26:10;;;;;;;25.73;23.20;;;;;;;;;;6179235;23;20392;-95
2022/09/11 14:28:48;;;;;;;25.40;23.10;;;;;;;;;;6181585;23;20417;-94
2022/09/11 14:31:39;;;;;;;;;;;;;;;;;;;;;
2022/09/11 14:34:10;;;;;;;23.10;20.97;;;;;;;;;;6203924;23;20355;-94
2022/09/11 14:36:39;;;;;;;25.53;23.23;;;;;;;;;;6175850;23;20391;-94
2022/09/11 14:39:05;;;;;;;23.00;21.13;;;;;;;;;;6180798;23;20430;-94
2022/09/11 14:41:42;;;;;;;23.23;21.23;;;;;;;;;;6179012;23;20396;-93
2022/09/11 14:44:12;;;;;;;21.93;20.17;;;;;;;;;;6180004;23;20418;-92
2022/09/11 14:46:45;;;;;;;29.90;27.20;;;;;;;;;;6176830;23;20382;-95
2022/09/11 14:49:20;;;;;;;22.87;21.07;;;;;;;;;;6175491;23;20430;-95
2022/09/11 14:52:16;;;;;;;22.10;20.20;;;;;;;;;;6177821;23;20351;-93
2022/09/11 14:57:45;;;;;;;21.57;19.57;;;;;;;;;;6192897;23;20449;-95
2022/09/11 15:06:10;;;;;;;22.30;20.30;;;;;;;;;;6171902;23;20467;-95
2022/09/11 15:08:39;;;;;;;22.57;20.57;;;;;;;;;;6173855;23;20396;-95
2022/09/11 15:11:05;;;;;;;21.10;19.30;;;;;;;;;;6174544;23;20416;-95
2022/09/11 15:13:31;;;;;;;23.90;21.90;;;;;;;;;;6175755;23;20442;-93
2022/09/11 15:18:54;;;;;;;23.20;21.10;;;;;;;;;;6181361;22;20483;-90
2022/09/11 15:21:26;;;;;;;22.93;20.73;;;;;;;;;;6205145;23;20438;-95
2022/09/11 15:23:54;;;;;;;23.37;21.17;;;;;;;;;;6207002;23;20446;-93
2022/09/11 15:26:22;;;;;;;22.03;20.13;;;;;;;;;;6206071;23;20482;-89
2022/09/11 15:28:52;;;;;;;21.50;19.60;;;;;;;;;;6209010;23;20386;-94
2022/09/11 15:31:22;;;;;;;21.13;19.33;;;;;;;;;;6205625;23;20399;-93
2022/09/11 15:33:52;;;;;;;23.40;21.30;;;;;;;;;;6207991;23;20395;-91
2022/09/11 15:36:21;;;;;;;23.23;21.23;;;;;;;;;;6206055;23;20637;-95
2022/09/11 15:39:02;;;;;;;22.23;20.00;;;;;;;;;;6206431;23;20399;-93
2022/09/11 15:41:29;;;;;;;23.93;21.73;;;;;;;;;;6202214;23;20424;-93
2022/09/11 15:43:58;;;;;;;32.53;28.10;;;;;;;;;;6198533;23;20430;-93
2022/09/11 15:46:56;;;;;;;22.23;20.10;;;;;;;;;;6197730;23;20445;-90
2022/09/11 15:49:41;;;;;;;20.43;18.73;;;;;;;;;;6203176;23;20477;-92
2022/09/11 15:52:08;;;;;;;20.23;18.47;;;;;;;;;;6174846;23;20375;-90
2022/09/11 15:54:37;;;;;;;20.20;18.43;;;;;;;;;;6191582;23;20418;-91
2022/09/11 15:57:03;;;;;;;21.27;19.50;;;;;;;;;;6184697;23;20395;-92
2022/09/11 15:59:29;;;;;;;21.70;19.80;;;;;;;;;;6188486;23;20549;-92
2022/09/11 16:01:58;;;;;;;21.40;19.70;;;;;;;;;;6200996;23;20554;-95
2022/09/11 16:04:32;;;;;;;20.17;18.13;;;;;;;;;;6182408;23;20473;-93
2022/09/11 16:07:01;;;;;;;20.00;18.30;;;;;;;;;;6177723;23;20411;-90
2022/09/11 16:09:30;;;;;;;25.10;22.70;;;;;;;;;;6173584;23;20835;-94
2022/09/11 16:11:58;;;;;;;22.50;20.50;;;;;;;;;;6200997;23;20433;-94
2022/09/11 16:14:29;;;;;;;21.70;19.60;;;;;;;;;;6172019;23;20403;-94
2022/09/11 16:16:57;;;;;;;20.77;18.93;;;;;;;;;;6167260;23;20391;-93
2022/09/11 16:19:27;;;;;;;21.87;19.87;;;;;;;;;;6169857;23;20388;-92
2022/09/11 16:22:06;;;;;;;20.63;18.77;;;;;;;;;;6171481;23;20548;-91
2022/09/11 16:24:37;;;;;;;21.33;19.43;;;;;;;;;;6167573;23;20427;-90
2022/09/11 16:27:07;;;;;;;17.77;16.20;;;;;;;;;;6167886;23;20423;-90
2022/09/11 16:29:34;;;;;;;22.93;20.73;;;;;;;;;;6176963;23;20422;-93
2022/09/11 16:32:01;;;;;;;22.67;20.67;;;;;;;;;;6172944;23;20859;-93
2022/09/11 16:34:27;;;;;;;18.70;17.10;;;;;;;;;;6173805;23;20422;-95
2022/09/11 16:36:54;;;;;;;20.87;19.07;;;;;;;;;;6170935;23;20391;-89
2022/09/11 16:39:23;;;;;;;18.57;16.90;;;;;;;;;;6171739;23;20444;-94
2022/09/11 16:41:49;;;;;;;20.73;18.73;;;;;;;;;;6167771;23;20910;-95
2022/09/11 16:44:16;;;;;;;21.53;19.77;;;;;;;;;;6166957;23;20407;-92
2022/09/11 16:46:46;;;;;;;19.57;17.77;;;;;;;;;;6165920;23;20422;-94
2022/09/11 16:49:16;;;;;;;18.27;16.90;;;;;;;;;;6142298;23;20537;-94
2022/09/11 16:51:43;;;;;;;17.60;16.20;;;;;;;;;;6144533;23;20695;-92
2022/09/11 16:54:09;;;;;;;18.87;17.27;;;;;;;;;;6140167;23;20404;-95
2022/09/11 16:56:36;;;;;;;19.77;18.07;;;;;;;;;;6140808;23;20380;-94
2022/09/11 16:59:03;;;;;;;21.30;19.50;;;;;;;;;;6142168;23;20399;-94
2022/09/11 17:01:29;;;;;;;20.30;18.40;;;;;;;;;;6130575;23;20934;-94
2022/09/11 17:03:56;;;;;;;19.63;18.00;;;;;;;;;;6161775;23;20415;-92
2022/09/11 17:06:23;;;;;;;21.87;19.87;;;;;;;;;;6156142;23;20400;-93
2022/09/11 17:08:50;;;;;;;27.10;24.60;;;;;;;;;;6157308;23;20400;-94
2022/09/11 17:11:16;;;;;;;24.03;21.70;;;;;;;;;;6156670;23;20392;-92
2022/09/11 17:13:43;;;;;;;24.17;21.67;;;;;;;;;;6160686;23;20400;-93
2022/09/11 17:16:16;;;;;;;23.50;21.00;;;;;;;;;;6160475;23;20461;-93
2022/09/11 17:18:50;;;;;;;19.00;17.43;;;;;;;;;;6170702;23;20416;-89
2022/09/11 17:21:16;;;;;;;20.40;18.67;;;;;;;;;;6177917;23;20404;-94
2022/09/11 17:23:42;;;;;;;21.07;19.20;;;;;;;;;;6176316;23;20440;-95
2022/09/11 17:26:12;;;;;;;19.40;17.50;;;;;;;;;;6173190;23;20436;-95
2022/09/11 17:29:08;;;;;;;20.83;18.87;;;;;;;;;;6174730;23;20400;-94
2022/09/11 17:34:34;;;;;;;23.50;21.20;;;;;;;;;;6166965;23;20403;-96
2022/09/11 17:37:02;;;;;;;25.97;23.23;;;;;;;;;;6174013;23;20446;-93
2022/09/11 17:39:31;;;;;;;23.20;21.10;;;;;;;;;;6177773;23;20392;-90
2022/09/11 17:42:06;;;;;;;22.07;20.03;;;;;;;;;;6176902;23;20416;-95
2022/09/11 17:44:41;;;;;;;21.00;19.17;;;;;;;;;;6191118;23;20399;-94
2022/09/11 17:47:08;;;;;;;21.97;19.90;;;;;;;;;;6142304;23;20391;-95
2022/09/11 17:49:39;;;;;;;21.87;19.57;;;;;;;;;;6165064;23;20412;-96
2022/09/11 17:52:08;;;;;;;21.57;19.67;;;;;;;;;;6160132;23;20396;-92
2022/09/11 17:54:40;;;;;;;21.87;19.67;;;;;;;;;;6169837;23;20874;-95
2022/09/11 17:57:15;;;;;;;21.00;18.90;;;;;;;;;;6175454;23;20377;-94
2022/09/11 17:59:45;;;;;;;22.50;20.50;;;;;;;;;;6168990;23;20394;-95
2022/09/11 18:02:15;;;;;;;24.37;21.77;;;;;;;;;;6167971;23;20426;-92
2022/09/11 18:04:45;;;;;;;22.90;20.80;;;;;;;;;;6165071;23;20427;-94
2022/09/11 18:07:14;;;;;;;21.90;19.73;;;;;;;;;;6161634;23;20395;-94
2022/09/11 18:09:58;;;;;;;23.00;20.67;;;;;;;;;;6165417;23;20396;-93
2022/09/11 18:12:54;;;;;;;23.43;21.10;;;;;;;;;;6135685;23;20423;-94
2022/09/11 18:15:27;;;;;;;23.13;20.87;;;;;;;;;;6157836;23;20396;-92
2022/09/11 18:18:05;;;;;;;23.07;20.80;;;;;;;;;;6158627;23;20448;-91
2022/09/11 18:21:09;;;;;;;23.47;21.17;;;;;;;;;;6155638;23;20987;-92
2022/09/11 18:23:28;;;;;;;23.57;21.30;;;;;;;;;;6153908;23;20451;-91
2022/09/11 18:29:20;;;;;;;;;;;;;;;;;;;;;
2022/09/11 18:31:58;;;;;;;24.80;22.30;;;;;;;;;;6158324;23;20435;-92
2022/09/11 18:34:26;;;;;;;24.90;22.50;;;;;;;;;;6159928;23;20375;-94
2022/09/11 18:44:57;;;;;;;27.63;24.73;;;;;;;;;;6209332;23;20483;-92
2022/09/11 19:20:10;;;;;;;;;;;;;;;;;;;;;
2022/09/11 19:22:45;;;;;;;30.17;26.97;;;;;;;;;;6156135;23;20977;-93
2022/09/11 19:25:56;;;;;;;33.63;27.90;;;;;;;;;;6164251;23;20395;-92
2022/09/11 19:28:52;;;;;;;29.67;26.47;;;;;;;;;;6074880;23;20863;-93
2022/09/11 19:31:51;;;;;;;31.77;28.40;;;;;;;;;;6094097;23;20773;-93
2022/09/11 20:11:56;;;;;;;31.90;28.13;;;;;;;;;;6179494;23;20397;-95
2022/09/11 20:14:50;;;;;;;34.40;28.40;;;;;;;;;;6103495;23;20401;-94
2022/09/11 20:17:43;;;;;;;34.37;28.60;;;;;;;;;;6101883;23;20456;-94
2022/09/11 20:20:51;;;;;;;32.07;27.20;;;;;;;;;;6129876;23;20393;-92
2022/09/11 20:26:53;;;;;;;30.30;26.70;;;;;;;;;;6072307;23;20394;-93
2022/09/11 20:29:51;;;;;;;31.50;27.00;;;;;;;;;;6079392;23;20437;-94
2022/09/11 20:32:59;;;;;;;;;;;;;;;;;;;;;
2022/09/11 20:35:44;;;;;;;31.00;25.40;;;;;;;;;;5982716;23;20465;-95
2022/09/11 20:46:35;;;;;;;;;;;;;;;;;;;;;
2022/09/11 21:23:11;;;;;;;;;;;;;;;;;;;;;
